sensor_id;sensor_type;location;lat;lon;timestamp;temperature;humidity
60860;DHT22;46694;54.382;9.708;2023-07-29T00:00:10;18.40;99.90
60860;DHT22;46694;54.382;9.708;2023-07-29T00:02:50;18.30;99.90
60860;DHT22;46694;54.382;9.708;2023-07-29T00:05:29;18.30;99.90
60860;DHT22;46694;54.382;9.708;2023-07-29T00:08:09;18.30;99.90
60860;DHT22;46694;54.382;9.708;2023-07-29T00:10:48;18.40;99.90
60860;DHT22;46694;54.382;9.708;2023-07-29T00:13:41;18.30;99.90
60860;DHT22;46694;54.382;9.708;2023-07-29T00:16:21;18.40;99.90
60860;DHT22;46694;54.382;9.708;2023-07-29T00:19:02;18.30;99.90
60860;DHT22;46694;54.382;9.708;2023-07-29T00:21:42;18.30;99.90
60860;DHT22;46694;54.382;9.708;2023-07-29T00:24:21;18.30;99.90
60860;DHT22;46694;54.382;9.708;2023-07-29T00:27:01;18.30;99.90
60860;DHT22;46694;54.382;9.708;2023-07-29T00:29:42;18.30;99.90
60860;DHT22;46694;54.382;9.708;2023-07-29T00:32:21;18.40;99.90
60860;DHT22;46694;54.382;9.708;2023-07-29T00:35:01;18.40;99.90
60860;DHT22;46694;54.382;9.708;2023-07-29T00:40:42;18.50;99.90
60860;DHT22;46694;54.382;9.708;2023-07-29T00:43:22;18.40;99.90
60860;DHT22;46694;54.382;9.708;2023-07-29T00:46:02;18.40;99.90
60860;DHT22;46694;54.382;9.708;2023-07-29T00:48:41;18.50;99.90
60860;DHT22;46694;54.382;9.708;2023-07-29T00:51:21;18.50;99.90
60860;DHT22;46694;54.382;9.708;2023-07-29T00:54:00;18.50;99.90
60860;DHT22;46694;54.382;9.708;2023-07-29T00:56:40;18.50;99.90
60860;DHT22;46694;54.382;9.708;2023-07-29T00:59:20;18.50;99.90
60860;DHT22;46694;54.382;9.708;2023-07-29T01:02:02;18.50;99.90
60860;DHT22;46694;54.382;9.708;2023-07-29T01:04:42;18.50;99.90
60860;DHT22;46694;54.382;9.708;2023-07-29T01:07:48;18.40;99.90
60860;DHT22;46694;54.382;9.708;2023-07-29T01:10:46;18.40;99.90
60860;DHT22;46694;54.382;9.708;2023-07-29T01:13:50;18.40;99.90
60860;DHT22;46694;54.382;9.708;2023-07-29T01:16:42;18.50;99.90
60860;DHT22;46694;54.382;9.708;2023-07-29T01:22:49;18.50;99.90
60860;DHT22;46694;54.382;9.708;2023-07-29T01:25:29;18.50;99.90
60860;DHT22;46694;54.382;9.708;2023-07-29T01:28:09;18.40;99.90
60860;DHT22;46694;54.382;9.708;2023-07-29T01:30:51;18.40;99.90
60860;DHT22;46694;54.382;9.708;2023-07-29T01:33:40;18.40;99.90
60860;DHT22;46694;54.382;9.708;2023-07-29T01:36:27;18.30;99.90
60860;DHT22;46694;54.382;9.708;2023-07-29T01:39:08;18.30;99.90
60860;DHT22;46694;54.382;9.708;2023-07-29T01:41:50;18.30;99.90
60860;DHT22;46694;54.382;9.708;2023-07-29T01:44:30;18.20;99.90
60860;DHT22;46694;54.382;9.708;2023-07-29T01:47:10;18.10;99.90
60860;DHT22;46694;54.382;9.708;2023-07-29T01:49:50;18.10;99.90
60860;DHT22;46694;54.382;9.708;2023-07-29T01:52:29;18.10;99.90
60860;DHT22;46694;54.382;9.708;2023-07-29T01:55:09;18.00;99.90
60860;DHT22;46694;54.382;9.708;2023-07-29T01:57:49;18.10;99.90
60860;DHT22;46694;54.382;9.708;2023-07-29T02:00:28;18.10;99.90
60860;DHT22;46694;54.382;9.708;2023-07-29T02:03:08;18.10;99.90
60860;DHT22;46694;54.382;9.708;2023-07-29T02:05:47;18.10;99.90
60860;DHT22;46694;54.382;9.708;2023-07-29T02:08:27;18.10;99.90
60860;DHT22;46694;54.382;9.708;2023-07-29T02:11:06;18.10;99.90
60860;DHT22;46694;54.382;9.708;2023-07-29T02:13:46;18.10;99.90
60860;DHT22;46694;54.382;9.708;2023-07-29T02:16:26;18.10;99.90
60860;DHT22;46694;54.382;9.708;2023-07-29T02:19:05;18.10;99.90
60860;DHT22;46694;54.382;9.708;2023-07-29T02:21:45;18.10;99.90
60860;DHT22;46694;54.382;9.708;2023-07-29T02:24:24;18.10;99.90
60860;DHT22;46694;54.382;9.708;2023-07-29T02:27:04;18.10;99.90
60860;DHT22;46694;54.382;9.708;2023-07-29T02:29:43;18.10;99.90
60860;DHT22;46694;54.382;9.708;2023-07-29T02:32:23;18.10;99.90
60860;DHT22;46694;54.382;9.708;2023-07-29T02:35:03;18.10;99.90
60860;DHT22;46694;54.382;9.708;2023-07-29T02:37:42;18.00;99.90
60860;DHT22;46694;54.382;9.708;2023-07-29T02:40:22;18.00;99.90
60860;DHT22;46694;54.382;9.708;2023-07-29T02:43:02;18.00;99.90
60860;DHT22;46694;54.382;9.708;2023-07-29T02:45:41;18.00;99.90
60860;DHT22;46694;54.382;9.708;2023-07-29T02:48:21;18.10;99.90
60860;DHT22;46694;54.382;9.708;2023-07-29T02:51:00;18.10;99.90
60860;DHT22;46694;54.382;9.708;2023-07-29T02:53:40;18.10;99.90
60860;DHT22;46694;54.382;9.708;2023-07-29T02:56:19;18.10;99.90
60860;DHT22;46694;54.382;9.708;2023-07-29T02:58:59;18.00;99.90
60860;DHT22;46694;54.382;9.708;2023-07-29T03:01:39;18.00;99.90
60860;DHT22;46694;54.382;9.708;2023-07-29T03:04:18;18.00;99.90
60860;DHT22;46694;54.382;9.708;2023-07-29T03:06:58;18.00;99.90
60860;DHT22;46694;54.382;9.708;2023-07-29T03:09:41;18.00;99.90
60860;DHT22;46694;54.382;9.708;2023-07-29T03:12:21;18.00;99.90
60860;DHT22;46694;54.382;9.708;2023-07-29T03:15:00;18.00;99.90
60860;DHT22;46694;54.382;9.708;2023-07-29T03:17:40;17.90;99.90
60860;DHT22;46694;54.382;9.708;2023-07-29T03:20:19;17.90;99.90
60860;DHT22;46694;54.382;9.708;2023-07-29T03:22:59;17.90;99.90
60860;DHT22;46694;54.382;9.708;2023-07-29T03:25:38;18.00;99.90
60860;DHT22;46694;54.382;9.708;2023-07-29T03:28:18;18.00;99.90
60860;DHT22;46694;54.382;9.708;2023-07-29T03:30:58;18.00;99.90
60860;DHT22;46694;54.382;9.708;2023-07-29T03:33:38;18.00;99.90
60860;DHT22;46694;54.382;9.708;2023-07-29T03:36:17;18.00;99.90
60860;DHT22;46694;54.382;9.708;2023-07-29T03:38:58;18.00;99.90
60860;DHT22;46694;54.382;9.708;2023-07-29T03:41:38;18.00;99.90
60860;DHT22;46694;54.382;9.708;2023-07-29T03:44:17;18.00;99.90
60860;DHT22;46694;54.382;9.708;2023-07-29T03:46:57;18.00;99.90
60860;DHT22;46694;54.382;9.708;2023-07-29T03:49:37;18.00;99.90
60860;DHT22;46694;54.382;9.708;2023-07-29T03:52:16;18.00;99.90
60860;DHT22;46694;54.382;9.708;2023-07-29T03:54:56;18.10;99.90
60860;DHT22;46694;54.382;9.708;2023-07-29T03:57:35;18.00;99.90
60860;DHT22;46694;54.382;9.708;2023-07-29T04:00:15;18.10;99.90
60860;DHT22;46694;54.382;9.708;2023-07-29T04:02:54;18.10;99.90
60860;DHT22;46694;54.382;9.708;2023-07-29T04:05:34;18.10;99.90
60860;DHT22;46694;54.382;9.708;2023-07-29T04:08:14;18.00;99.90
60860;DHT22;46694;54.382;9.708;2023-07-29T04:10:53;17.90;99.90
60860;DHT22;46694;54.382;9.708;2023-07-29T04:13:33;17.80;99.90
60860;DHT22;46694;54.382;9.708;2023-07-29T04:16:13;17.80;99.90
60860;DHT22;46694;54.382;9.708;2023-07-29T04:18:53;17.80;99.90
60860;DHT22;46694;54.382;9.708;2023-07-29T04:21:32;17.80;99.90
60860;DHT22;46694;54.382;9.708;2023-07-29T04:24:12;17.80;99.90
60860;DHT22;46694;54.382;9.708;2023-07-29T04:26:51;17.80;99.90
60860;DHT22;46694;54.382;9.708;2023-07-29T04:29:31;17.90;99.90
60860;DHT22;46694;54.382;9.708;2023-07-29T04:32:10;17.90;99.90
60860;DHT22;46694;54.382;9.708;2023-07-29T04:34:50;17.90;99.90
60860;DHT22;46694;54.382;9.708;2023-07-29T04:37:29;17.90;99.90
60860;DHT22;46694;54.382;9.708;2023-07-29T04:40:09;17.80;99.90
60860;DHT22;46694;54.382;9.708;2023-07-29T04:42:50;17.80;99.90
60860;DHT22;46694;54.382;9.708;2023-07-29T04:45:30;17.80;99.90
60860;DHT22;46694;54.382;9.708;2023-07-29T04:48:10;17.80;99.90
60860;DHT22;46694;54.382;9.708;2023-07-29T04:50:49;17.70;99.90
60860;DHT22;46694;54.382;9.708;2023-07-29T04:53:29;17.70;99.90
60860;DHT22;46694;54.382;9.708;2023-07-29T04:56:09;17.70;99.90
60860;DHT22;46694;54.382;9.708;2023-07-29T04:58:48;17.80;99.90
60860;DHT22;46694;54.382;9.708;2023-07-29T05:01:28;17.80;99.90
60860;DHT22;46694;54.382;9.708;2023-07-29T05:04:08;17.90;99.90
60860;DHT22;46694;54.382;9.708;2023-07-29T05:06:47;17.90;99.90
60860;DHT22;46694;54.382;9.708;2023-07-29T05:09:27;18.00;99.90
60860;DHT22;46694;54.382;9.708;2023-07-29T05:12:07;18.10;99.90
60860;DHT22;46694;54.382;9.708;2023-07-29T05:14:47;18.20;99.90
60860;DHT22;46694;54.382;9.708;2023-07-29T05:17:26;18.20;99.90
60860;DHT22;46694;54.382;9.708;2023-07-29T05:20:06;18.30;99.90
60860;DHT22;46694;54.382;9.708;2023-07-29T05:22:46;18.30;99.90
60860;DHT22;46694;54.382;9.708;2023-07-29T05:25:26;18.30;99.90
60860;DHT22;46694;54.382;9.708;2023-07-29T05:28:06;18.30;99.90
60860;DHT22;46694;54.382;9.708;2023-07-29T05:30:45;18.30;99.90
60860;DHT22;46694;54.382;9.708;2023-07-29T05:33:25;18.20;99.90
60860;DHT22;46694;54.382;9.708;2023-07-29T05:36:05;18.30;99.90
60860;DHT22;46694;54.382;9.708;2023-07-29T05:38:44;18.30;99.90
60860;DHT22;46694;54.382;9.708;2023-07-29T05:41:24;18.20;99.90
60860;DHT22;46694;54.382;9.708;2023-07-29T05:44:06;18.30;99.90
60860;DHT22;46694;54.382;9.708;2023-07-29T05:46:46;18.40;99.90
60860;DHT22;46694;54.382;9.708;2023-07-29T05:49:26;18.50;99.90
60860;DHT22;46694;54.382;9.708;2023-07-29T05:52:06;18.70;99.90
60860;DHT22;46694;54.382;9.708;2023-07-29T05:54:46;19.00;99.90
60860;DHT22;46694;54.382;9.708;2023-07-29T05:57:27;19.20;99.90
60860;DHT22;46694;54.382;9.708;2023-07-29T06:00:07;19.20;99.90
60860;DHT22;46694;54.382;9.708;2023-07-29T06:02:47;19.20;99.90
60860;DHT22;46694;54.382;9.708;2023-07-29T06:05:27;19.10;99.90
60860;DHT22;46694;54.382;9.708;2023-07-29T06:08:07;19.20;99.90
60860;DHT22;46694;54.382;9.708;2023-07-29T06:10:47;19.20;99.90
60860;DHT22;46694;54.382;9.708;2023-07-29T06:13:28;19.20;99.90
60860;DHT22;46694;54.382;9.708;2023-07-29T06:16:08;19.30;99.90
60860;DHT22;46694;54.382;9.708;2023-07-29T06:19:21;19.50;99.90
60860;DHT22;46694;54.382;9.708;2023-07-29T06:22:01;19.90;99.90
60860;DHT22;46694;54.382;9.708;2023-07-29T06:24:40;20.20;99.90
60860;DHT22;46694;54.382;9.708;2023-07-29T06:27:20;20.50;99.90
60860;DHT22;46694;54.382;9.708;2023-07-29T06:29:59;20.60;99.90
60860;DHT22;46694;54.382;9.708;2023-07-29T06:32:38;20.50;99.90
60860;DHT22;46694;54.382;9.708;2023-07-29T06:35:17;20.20;99.90
60860;DHT22;46694;54.382;9.708;2023-07-29T06:37:57;20.10;99.90
60860;DHT22;46694;54.382;9.708;2023-07-29T06:40:36;20.00;99.90
60860;DHT22;46694;54.382;9.708;2023-07-29T06:43:15;20.00;99.90
60860;DHT22;46694;54.382;9.708;2023-07-29T06:45:55;20.00;99.90
60860;DHT22;46694;54.382;9.708;2023-07-29T06:48:34;19.90;99.90
60860;DHT22;46694;54.382;9.708;2023-07-29T06:51:13;19.90;99.90
60860;DHT22;46694;54.382;9.708;2023-07-29T06:53:52;19.90;99.90
60860;DHT22;46694;54.382;9.708;2023-07-29T06:56:32;20.10;99.90
60860;DHT22;46694;54.382;9.708;2023-07-29T06:59:11;20.20;99.90
60860;DHT22;46694;54.382;9.708;2023-07-29T07:05:12;20.50;99.90
60860;DHT22;46694;54.382;9.708;2023-07-29T07:07:59;20.50;99.90
60860;DHT22;46694;54.382;9.708;2023-07-29T07:10:38;20.70;99.90
60860;DHT22;46694;54.382;9.708;2023-07-29T07:13:18;20.70;99.90
60860;DHT22;46694;54.382;9.708;2023-07-29T07:15:57;20.70;99.90
60860;DHT22;46694;54.382;9.708;2023-07-29T07:18:36;20.80;99.90
60860;DHT22;46694;54.382;9.708;2023-07-29T07:21:15;20.90;99.90
60860;DHT22;46694;54.382;9.708;2023-07-29T07:23:54;20.90;99.90
60860;DHT22;46694;54.382;9.708;2023-07-29T07:26:34;20.90;99.90
60860;DHT22;46694;54.382;9.708;2023-07-29T07:29:13;20.90;99.90
60860;DHT22;46694;54.382;9.708;2023-07-29T07:31:53;21.10;99.90
60860;DHT22;46694;54.382;9.708;2023-07-29T07:34:33;21.50;99.90
60860;DHT22;46694;54.382;9.708;2023-07-29T07:37:13;22.20;99.90
60860;DHT22;46694;54.382;9.708;2023-07-29T07:39:52;22.70;99.90
60860;DHT22;46694;54.382;9.708;2023-07-29T07:42:31;23.00;99.90
60860;DHT22;46694;54.382;9.708;2023-07-29T07:45:10;23.10;99.90
60860;DHT22;46694;54.382;9.708;2023-07-29T07:47:51;23.20;99.90
60860;DHT22;46694;54.382;9.708;2023-07-29T07:50:32;23.40;99.90
60860;DHT22;46694;54.382;9.708;2023-07-29T07:53:11;23.50;99.90
60860;DHT22;46694;54.382;9.708;2023-07-29T07:55:51;23.60;99.90
60860;DHT22;46694;54.382;9.708;2023-07-29T07:58:31;23.50;99.90
60860;DHT22;46694;54.382;9.708;2023-07-29T08:01:15;23.40;99.90
60860;DHT22;46694;54.382;9.708;2023-07-29T08:03:55;23.50;99.90
60860;DHT22;46694;54.382;9.708;2023-07-29T08:06:35;23.40;99.90
60860;DHT22;46694;54.382;9.708;2023-07-29T08:09:14;23.30;99.90
60860;DHT22;46694;54.382;9.708;2023-07-29T08:11:54;23.30;99.90
60860;DHT22;46694;54.382;9.708;2023-07-29T08:14:33;23.60;99.90
60860;DHT22;46694;54.382;9.708;2023-07-29T08:17:13;23.80;99.90
60860;DHT22;46694;54.382;9.708;2023-07-29T08:19:53;23.90;99.90
60860;DHT22;46694;54.382;9.708;2023-07-29T08:22:32;23.70;99.90
60860;DHT22;46694;54.382;9.708;2023-07-29T08:25:11;23.70;99.90
60860;DHT22;46694;54.382;9.708;2023-07-29T08:27:51;23.60;99.90
60860;DHT22;46694;54.382;9.708;2023-07-29T08:30:31;23.40;99.90
60860;DHT22;46694;54.382;9.708;2023-07-29T08:33:13;23.30;99.90
60860;DHT22;46694;54.382;9.708;2023-07-29T08:35:54;23.20;99.90
60860;DHT22;46694;54.382;9.708;2023-07-29T08:38:33;23.30;99.90
60860;DHT22;46694;54.382;9.708;2023-07-29T08:41:25;23.80;99.90
60860;DHT22;46694;54.382;9.708;2023-07-29T08:45:07;24.20;99.90
60860;DHT22;46694;54.382;9.708;2023-07-29T08:47:22;24.20;99.90
60860;DHT22;46694;54.382;9.708;2023-07-29T08:50:02;24.00;99.90
60860;DHT22;46694;54.382;9.708;2023-07-29T08:52:42;23.80;99.90
60860;DHT22;46694;54.382;9.708;2023-07-29T08:55:23;23.60;99.90
60860;DHT22;46694;54.382;9.708;2023-07-29T08:58:03;23.40;99.90
60860;DHT22;46694;54.382;9.708;2023-07-29T09:00:43;23.30;99.90
60860;DHT22;46694;54.382;9.708;2023-07-29T09:03:23;23.40;99.90
60860;DHT22;46694;54.382;9.708;2023-07-29T09:06:03;23.50;99.90
60860;DHT22;46694;54.382;9.708;2023-07-29T09:08:44;23.60;99.90
60860;DHT22;46694;54.382;9.708;2023-07-29T09:11:24;23.60;99.90
60860;DHT22;46694;54.382;9.708;2023-07-29T09:14:04;23.90;99.90
60860;DHT22;46694;54.382;9.708;2023-07-29T09:16:45;24.40;99.90
60860;DHT22;46694;54.382;9.708;2023-07-29T09:19:25;25.00;99.90
60860;DHT22;46694;54.382;9.708;2023-07-29T09:22:17;25.80;99.90
60860;DHT22;46694;54.382;9.708;2023-07-29T09:24:58;26.30;99.90
60860;DHT22;46694;54.382;9.708;2023-07-29T09:27:38;26.50;99.90
60860;DHT22;46694;54.382;9.708;2023-07-29T09:30:18;26.30;99.90
60860;DHT22;46694;54.382;9.708;2023-07-29T09:32:58;26.20;99.90
60860;DHT22;46694;54.382;9.708;2023-07-29T09:35:41;26.50;99.90
60860;DHT22;46694;54.382;9.708;2023-07-29T09:38:27;26.90;99.90
60860;DHT22;46694;54.382;9.708;2023-07-29T09:41:07;26.50;99.90
60860;DHT22;46694;54.382;9.708;2023-07-29T09:43:48;26.10;99.90
60860;DHT22;46694;54.382;9.708;2023-07-29T09:46:36;25.70;99.90
60860;DHT22;46694;54.382;9.708;2023-07-29T09:49:15;25.50;99.90
60860;DHT22;46694;54.382;9.708;2023-07-29T09:51:56;25.30;99.90
60860;DHT22;46694;54.382;9.708;2023-07-29T09:54:36;25.10;99.90
60860;DHT22;46694;54.382;9.708;2023-07-29T09:59:57;24.40;99.90
60860;DHT22;46694;54.382;9.708;2023-07-29T10:02:41;24.20;99.90
60860;DHT22;46694;54.382;9.708;2023-07-29T10:05:22;24.40;99.90
60860;DHT22;46694;54.382;9.708;2023-07-29T10:08:02;24.90;99.90
60860;DHT22;46694;54.382;9.708;2023-07-29T10:10:42;25.60;99.90
60860;DHT22;46694;54.382;9.708;2023-07-29T10:13:22;25.90;99.90
60860;DHT22;46694;54.382;9.708;2023-07-29T10:16:03;25.90;99.90
60860;DHT22;46694;54.382;9.708;2023-07-29T10:18:44;26.00;99.90
60860;DHT22;46694;54.382;9.708;2023-07-29T10:21:24;26.00;99.90
60860;DHT22;46694;54.382;9.708;2023-07-29T10:24:06;26.10;99.90
60860;DHT22;46694;54.382;9.708;2023-07-29T10:26:50;25.90;99.90
60860;DHT22;46694;54.382;9.708;2023-07-29T10:29:38;25.90;99.90
60860;DHT22;46694;54.382;9.708;2023-07-29T10:32:23;26.00;99.90
60860;DHT22;46694;54.382;9.708;2023-07-29T10:35:05;26.40;99.90
60860;DHT22;46694;54.382;9.708;2023-07-29T10:38:06;26.40;99.90
60860;DHT22;46694;54.382;9.708;2023-07-29T10:40:47;26.50;99.90
60860;DHT22;46694;54.382;9.708;2023-07-29T10:43:38;26.80;99.90
60860;DHT22;46694;54.382;9.708;2023-07-29T10:48:58;26.60;99.90
60860;DHT22;46694;54.382;9.708;2023-07-29T10:51:41;26.70;99.90
60860;DHT22;46694;54.382;9.708;2023-07-29T10:54:20;26.70;99.90
60860;DHT22;46694;54.382;9.708;2023-07-29T10:57:00;26.70;99.90
60860;DHT22;46694;54.382;9.708;2023-07-29T10:59:40;26.80;99.90
60860;DHT22;46694;54.382;9.708;2023-07-29T11:02:40;26.90;99.90
60860;DHT22;46694;54.382;9.708;2023-07-29T11:05:20;27.20;99.90
60860;DHT22;46694;54.382;9.708;2023-07-29T11:08:23;27.20;99.90
60860;DHT22;46694;54.382;9.708;2023-07-29T11:11:08;27.50;99.90
60860;DHT22;46694;54.382;9.708;2023-07-29T11:13:51;27.90;99.90
60860;DHT22;46694;54.382;9.708;2023-07-29T11:16:31;27.60;99.90
60860;DHT22;46694;54.382;9.708;2023-07-29T11:19:15;27.20;99.90
60860;DHT22;46694;54.382;9.708;2023-07-29T11:21:58;26.80;99.90
60860;DHT22;46694;54.382;9.708;2023-07-29T11:24:37;26.70;99.90
60860;DHT22;46694;54.382;9.708;2023-07-29T11:27:18;26.60;99.90
60860;DHT22;46694;54.382;9.708;2023-07-29T11:29:59;26.60;99.90
60860;DHT22;46694;54.382;9.708;2023-07-29T11:32:42;26.70;99.90
60860;DHT22;46694;54.382;9.708;2023-07-29T11:35:23;26.70;99.90
60860;DHT22;46694;54.382;9.708;2023-07-29T11:38:03;26.80;99.90
60860;DHT22;46694;54.382;9.708;2023-07-29T11:40:43;26.90;99.90
60860;DHT22;46694;54.382;9.708;2023-07-29T11:43:36;27.10;99.90
60860;DHT22;46694;54.382;9.708;2023-07-29T11:46:21;27.10;99.90
60860;DHT22;46694;54.382;9.708;2023-07-29T11:49:01;27.20;99.90
60860;DHT22;46694;54.382;9.708;2023-07-29T11:51:41;27.20;99.90
60860;DHT22;46694;54.382;9.708;2023-07-29T11:54:21;27.10;99.90
60860;DHT22;46694;54.382;9.708;2023-07-29T11:57:01;27.30;99.90
60860;DHT22;46694;54.382;9.708;2023-07-29T11:59:40;27.40;99.90
60860;DHT22;46694;54.382;9.708;2023-07-29T12:02:21;27.40;99.90
60860;DHT22;46694;54.382;9.708;2023-07-29T12:05:04;27.10;99.90
60860;DHT22;46694;54.382;9.708;2023-07-29T12:07:44;26.60;99.90
60860;DHT22;46694;54.382;9.708;2023-07-29T12:10:36;26.30;99.90
60860;DHT22;46694;54.382;9.708;2023-07-29T12:13:16;26.10;99.90
60860;DHT22;46694;54.382;9.708;2023-07-29T12:16:03;26.10;99.90
60860;DHT22;46694;54.382;9.708;2023-07-29T12:18:43;26.20;99.90
60860;DHT22;46694;54.382;9.708;2023-07-29T12:21:22;26.20;99.90
60860;DHT22;46694;54.382;9.708;2023-07-29T12:24:02;26.20;99.90
60860;DHT22;46694;54.382;9.708;2023-07-29T12:26:43;26.10;99.90
60860;DHT22;46694;54.382;9.708;2023-07-29T12:29:24;25.90;99.90
60860;DHT22;46694;54.382;9.708;2023-07-29T12:32:06;25.60;99.90
60860;DHT22;46694;54.382;9.708;2023-07-29T12:34:46;25.30;99.90
60860;DHT22;46694;54.382;9.708;2023-07-29T12:37:35;25.20;99.90
60860;DHT22;46694;54.382;9.708;2023-07-29T12:40:22;25.20;99.90
60860;DHT22;46694;54.382;9.708;2023-07-29T12:43:03;25.30;99.90
60860;DHT22;46694;54.382;9.708;2023-07-29T12:45:51;25.40;99.90
60860;DHT22;46694;54.382;9.708;2023-07-29T12:48:34;25.30;99.90
60860;DHT22;46694;54.382;9.708;2023-07-29T12:51:16;25.10;99.90
60860;DHT22;46694;54.382;9.708;2023-07-29T12:53:58;25.10;99.90
60860;DHT22;46694;54.382;9.708;2023-07-29T12:56:38;25.10;99.90
60860;DHT22;46694;54.382;9.708;2023-07-29T12:59:24;25.30;99.90
60860;DHT22;46694;54.382;9.708;2023-07-29T13:02:05;25.60;99.90
60860;DHT22;46694;54.382;9.708;2023-07-29T13:04:44;25.60;99.90
60860;DHT22;46694;54.382;9.708;2023-07-29T13:07:24;25.70;99.90
60860;DHT22;46694;54.382;9.708;2023-07-29T13:10:04;26.00;99.90
60860;DHT22;46694;54.382;9.708;2023-07-29T13:12:52;26.10;99.90
60860;DHT22;46694;54.382;9.708;2023-07-29T13:15:32;26.20;99.90
60860;DHT22;46694;54.382;9.708;2023-07-29T13:18:11;26.10;99.90
60860;DHT22;46694;54.382;9.708;2023-07-29T13:20:51;26.00;99.90
60860;DHT22;46694;54.382;9.708;2023-07-29T13:23:31;25.80;99.90
60860;DHT22;46694;54.382;9.708;2023-07-29T13:26:10;25.80;99.90
60860;DHT22;46694;54.382;9.708;2023-07-29T13:28:50;26.00;99.90
60860;DHT22;46694;54.382;9.708;2023-07-29T13:31:30;25.90;99.90
60860;DHT22;46694;54.382;9.708;2023-07-29T13:34:10;25.80;99.90
60860;DHT22;46694;54.382;9.708;2023-07-29T13:36:50;25.80;99.90
60860;DHT22;46694;54.382;9.708;2023-07-29T13:39:30;25.70;99.90
60860;DHT22;46694;54.382;9.708;2023-07-29T13:42:11;25.50;99.90
60860;DHT22;46694;54.382;9.708;2023-07-29T13:44:50;25.50;99.90
60860;DHT22;46694;54.382;9.708;2023-07-29T13:47:30;25.40;99.90
60860;DHT22;46694;54.382;9.708;2023-07-29T13:50:09;25.50;99.90
60860;DHT22;46694;54.382;9.708;2023-07-29T13:52:49;25.70;99.90
60860;DHT22;46694;54.382;9.708;2023-07-29T13:55:29;25.80;99.90
60860;DHT22;46694;54.382;9.708;2023-07-29T13:58:09;25.60;99.90
60860;DHT22;46694;54.382;9.708;2023-07-29T14:00:52;25.40;99.90
60860;DHT22;46694;54.382;9.708;2023-07-29T14:03:31;25.40;99.90
60860;DHT22;46694;54.382;9.708;2023-07-29T14:06:12;25.20;99.90
60860;DHT22;46694;54.382;9.708;2023-07-29T14:08:53;25.00;99.90
60860;DHT22;46694;54.382;9.708;2023-07-29T14:11:32;25.10;99.90
60860;DHT22;46694;54.382;9.708;2023-07-29T14:14:12;25.30;99.90
60860;DHT22;46694;54.382;9.708;2023-07-29T14:16:52;25.30;99.90
60860;DHT22;46694;54.382;9.708;2023-07-29T14:19:34;25.40;99.90
60860;DHT22;46694;54.382;9.708;2023-07-29T14:22:15;25.40;99.90
60860;DHT22;46694;54.382;9.708;2023-07-29T14:24:54;25.30;99.90
60860;DHT22;46694;54.382;9.708;2023-07-29T14:27:34;25.30;99.90
60860;DHT22;46694;54.382;9.708;2023-07-29T14:30:14;25.30;99.90
60860;DHT22;46694;54.382;9.708;2023-07-29T14:32:54;25.30;99.90
60860;DHT22;46694;54.382;9.708;2023-07-29T14:35:34;25.20;99.90
60860;DHT22;46694;54.382;9.708;2023-07-29T14:38:13;25.10;99.90
60860;DHT22;46694;54.382;9.708;2023-07-29T14:40:53;25.20;99.90
60860;DHT22;46694;54.382;9.708;2023-07-29T14:43:35;25.30;99.90
60860;DHT22;46694;54.382;9.708;2023-07-29T14:46:17;25.30;99.90
60860;DHT22;46694;54.382;9.708;2023-07-29T14:48:57;25.30;99.90
60860;DHT22;46694;54.382;9.708;2023-07-29T14:51:41;25.20;99.90
60860;DHT22;46694;54.382;9.708;2023-07-29T14:54:20;25.20;99.90
60860;DHT22;46694;54.382;9.708;2023-07-29T14:57:00;25.10;99.90
60860;DHT22;46694;54.382;9.708;2023-07-29T14:59:40;25.00;99.90
60860;DHT22;46694;54.382;9.708;2023-07-29T15:02:20;24.90;99.90
60860;DHT22;46694;54.382;9.708;2023-07-29T15:05:02;24.90;99.90
60860;DHT22;46694;54.382;9.708;2023-07-29T15:07:43;24.90;99.90
60860;DHT22;46694;54.382;9.708;2023-07-29T15:10:22;25.00;99.90
60860;DHT22;46694;54.382;9.708;2023-07-29T15:13:02;24.90;99.90
60860;DHT22;46694;54.382;9.708;2023-07-29T15:15:45;24.80;99.90
60860;DHT22;46694;54.382;9.708;2023-07-29T15:18:24;24.60;99.90
60860;DHT22;46694;54.382;9.708;2023-07-29T15:21:08;24.60;99.90
60860;DHT22;46694;54.382;9.708;2023-07-29T15:23:48;24.60;99.90
60860;DHT22;46694;54.382;9.708;2023-07-29T15:26:28;24.60;99.90
60860;DHT22;46694;54.382;9.708;2023-07-29T15:29:07;24.80;99.90
60860;DHT22;46694;54.382;9.708;2023-07-29T15:31:48;24.90;99.90
60860;DHT22;46694;54.382;9.708;2023-07-29T15:34:27;25.00;99.90
60860;DHT22;46694;54.382;9.708;2023-07-29T15:37:10;24.90;99.90
60860;DHT22;46694;54.382;9.708;2023-07-29T15:39:49;24.80;99.90
60860;DHT22;46694;54.382;9.708;2023-07-29T15:42:29;24.70;99.90
60860;DHT22;46694;54.382;9.708;2023-07-29T15:45:09;24.50;99.90
60860;DHT22;46694;54.382;9.708;2023-07-29T16:18:20;24.40;99.90
60860;DHT22;46694;54.382;9.708;2023-07-29T16:20:59;24.10;99.90
60860;DHT22;46694;54.382;9.708;2023-07-29T16:23:42;23.90;99.90
60860;DHT22;46694;54.382;9.708;2023-07-29T16:26:21;23.80;99.90
60860;DHT22;46694;54.382;9.708;2023-07-29T16:29:01;23.60;99.90
60860;DHT22;46694;54.382;9.708;2023-07-29T16:31:43;23.50;99.90
60860;DHT22;46694;54.382;9.708;2023-07-29T16:37:00;23.50;99.90
60860;DHT22;46694;54.382;9.708;2023-07-29T16:39:40;23.60;99.90
60860;DHT22;46694;54.382;9.708;2023-07-29T16:42:20;23.70;99.90
60860;DHT22;46694;54.382;9.708;2023-07-29T16:45:00;23.70;99.90
60860;DHT22;46694;54.382;9.708;2023-07-29T16:47:40;23.70;99.90
60860;DHT22;46694;54.382;9.708;2023-07-29T16:50:19;23.80;99.90
60860;DHT22;46694;54.382;9.708;2023-07-29T16:52:59;23.80;99.90
60860;DHT22;46694;54.382;9.708;2023-07-29T16:55:39;23.80;99.90
60860;DHT22;46694;54.382;9.708;2023-07-29T16:58:19;23.70;99.90
60860;DHT22;46694;54.382;9.708;2023-07-29T17:00:59;23.50;99.90
60860;DHT22;46694;54.382;9.708;2023-07-29T17:03:39;23.40;99.90
60860;DHT22;46694;54.382;9.708;2023-07-29T17:06:18;23.30;99.90
60860;DHT22;46694;54.382;9.708;2023-07-29T17:08:59;23.20;99.90
60860;DHT22;46694;54.382;9.708;2023-07-29T17:16:52;22.80;99.90
60860;DHT22;46694;54.382;9.708;2023-07-29T17:19:32;22.60;99.90
60860;DHT22;46694;54.382;9.708;2023-07-29T17:22:13;22.50;99.90
60860;DHT22;46694;54.382;9.708;2023-07-29T17:27:30;22.40;99.90
60860;DHT22;46694;54.382;9.708;2023-07-29T17:30:05;22.40;99.90
60860;DHT22;46694;54.382;9.708;2023-07-29T17:32:45;22.20;99.90
60860;DHT22;46694;54.382;9.708;2023-07-29T17:35:25;22.10;99.90
60860;DHT22;46694;54.382;9.708;2023-07-29T17:38:04;22.00;99.90
60860;DHT22;46694;54.382;9.708;2023-07-29T17:43:25;21.80;99.90
60860;DHT22;46694;54.382;9.708;2023-07-29T17:46:04;21.70;99.90
60860;DHT22;46694;54.382;9.708;2023-07-29T17:48:49;21.70;99.90
60860;DHT22;46694;54.382;9.708;2023-07-29T17:51:31;21.70;99.90
60860;DHT22;46694;54.382;9.708;2023-07-29T17:54:14;21.70;99.90